^^
Datos históricos de la estación: Murcia-Puente Tocinos
Diario Informe para Marzo 20, 2021 Unidades:  Métrico    Ingés   Ambas
Diario Semanal Mensual Anual
  Máxima: Mínima: Promedio:
Temperatura: 9.9 °C 6.7 °C 8.6 °C
Punto de rocio: 8 °C 5.5 °C 6.8 °C
Humedad: 93% 79% 89%
Velocidad viento: 8.4km/h 0km/h 4.3km/h
Racha viento: 16.7km/h - -
Viento- - Sur
Presión: 1020.5 hPa 1011.9 hPa -
Precipitación: 0.5 mm    
 
 
Tabla de datos para Marzo 20, 2021
Hora Temperatura Punto de rocio Presión Viento Velocidad viento Racha viento Humedad Intensidad lluvia(por hora) Nubes
00:04 8.5 °C 6.8 °C 1020.5 hPa ESE 2.2 km/h 3.2 km/h 89% 0.0 mm
00:09 8.4 °C 6.7 °C 1020.5 hPa ESE 0.2 km/h 5.6 km/h 89% 0.0 mm
00:14 8.3 °C 6.6 °C 1020.3 hPa Calm   5.6 km/h 89% 0.0 mm
00:19 8.3 °C 6.6 °C 1020.3 hPa NNE 2.7 km/h 6.9 km/h 89% 0.0 mm
00:24 8.2 °C 6.4 °C 1020.3 hPa OSO 3.2 km/h 8 km/h 89% 0.0 mm
00:29 8 °C 6.3 °C 1020.3 hPa OSO 2.9 km/h 8 km/h 89.3% 0.0 mm
00:34 7.9 °C 6.3 °C 1020.3 hPa OSO 2.9 km/h 3.2 km/h 90% 0.0 mm
00:39 7.9 °C 6.3 °C 1020.3 hPa OSO 0.4 km/h 2.3 km/h 90% 0.0 mm
00:44 7.9 °C 6.3 °C 1020.1 hPa Calm   7.4 km/h 90% 0.0 mm
00:49 7.7 °C 6.2 °C 1020.1 hPa ENE 1.9 km/h 5.6 km/h 89.6% 0.0 mm
00:54 7.6 °C 5.9 °C 1020.1 hPa ENE 2.2 km/h 4.8 km/h 89% 0.0 mm
00:59 7.3 °C 5.7 °C 1020.0 hPa Este 2.8 km/h 7.4 km/h 89% 0.0 mm
01:04 7.2 °C 5.7 °C 1020.0 hPa SE 2.9 km/h 8 km/h 90% 0.0 mm
01:09 7.2 °C 5.7 °C 1020.0 hPa SE 3.7 km/h 5.8 km/h 90.3% 0.0 mm
01:14 7.3 °C 5.9 °C 1019.9 hPa SE 3.9 km/h 6.4 km/h 91% 0.0 mm
01:19 7.3 °C 5.9 °C 1019.9 hPa SE 3.3 km/h 5.6 km/h 91% 0.0 mm
01:24 7.3 °C 6 °C 1019.9 hPa SE 3.2 km/h 4.8 km/h 91% 0.0 mm
01:29 7.3 °C 6 °C 1019.7 hPa SE 0.5 km/h   91% 0.0 mm
01:34 7.3 °C 5.9 °C 1019.7 hPa Calm     91% 0.0 mm
01:39 7.2 °C 5.9 °C 1019.7 hPa Calm     91% 0.0 mm
01:44 7.2 °C 5.8 °C 1019.5 hPa Calm   5 km/h 91% 0.0 mm
01:49 7.2 °C 5.8 °C 1019.5 hPa SE 1.9 km/h 5.6 km/h 91% 0.0 mm
01:54 7.1 °C 5.7 °C 1019.5 hPa SE 2.2 km/h 3.2 km/h 91% 0.0 mm
01:59 7.1 °C 5.6 °C 1019.4 hPa SE 0.2 km/h 4.7 km/h 90.4% 0.0 mm
02:04 7 °C 5.5 °C 1019.4 hPa Calm   7.4 km/h 90% 0.0 mm
02:09 6.9 °C 5.5 °C 1019.4 hPa ESE 2.4 km/h 8 km/h 90.6% 0.0 mm
02:14 6.9 °C 5.6 °C 1019.0 hPa ESE 2.9 km/h 3.2 km/h 91% 0.0 mm
02:19 6.9 °C 5.6 °C 1019.0 hPa ESE 0.4 km/h   91% 0.0 mm
02:24 6.9 °C 5.6 °C 1019.0 hPa Calm     91% 0.0 mm
02:29 6.9 °C 5.6 °C 1019.0 hPa Calm   5 km/h 91% 0.0 mm
02:34 7 °C 5.6 °C 1019.0 hPa Calm   7.4 km/h 91% 0.0 mm
02:39 7.1 °C 5.7 °C 1019.2 hPa SSE 2.7 km/h 8 km/h 91% 0.0 mm
02:44 7.2 °C 5.8 °C 1019.2 hPa SE 2.9 km/h 8 km/h 91.3% 0.0 mm
02:49 7.2 °C 6 °C 1019.2 hPa SE 3.7 km/h 8 km/h 92% 0.0 mm
02:54 7.3 °C 6.1 °C 1019.2 hPa ESE 3.9 km/h 8 km/h 92% 0.0 mm
02:59 7.4 °C 6.2 °C 1019.1 hPa SE 3.3 km/h 8 km/h 92% 0.0 mm
03:04 7.4 °C 6.2 °C 1019.1 hPa SE 3.2 km/h 8.4 km/h 92% 0.0 mm
03:09 7.4 °C 6.2 °C 1019.1 hPa SE 3.8 km/h 8 km/h 92% 0.0 mm
03:14 7.5 °C 6.2 °C 1018.9 hPa ESE 3.9 km/h 7.4 km/h 91.5% 0.0 mm
03:19 7.4 °C 6 °C 1018.9 hPa Este 3 km/h 9.5 km/h 91% 0.0 mm
03:24 7.3 °C 5.9 °C 1018.9 hPa Este 2.9 km/h 9.7 km/h 91% 0.0 mm
03:29 7.3 °C 5.9 °C 1018.8 hPa ESE 2.3 km/h 7.4 km/h 91% 0.0 mm
03:34 7.2 °C 5.8 °C 1018.8 hPa ESE 2.2 km/h 8 km/h 91% 0.0 mm
03:39 7.2 °C 5.8 °C 1018.8 hPa SSE 3.1 km/h 7.6 km/h 91% 0.0 mm
03:44 7.3 °C 6.1 °C 1018.7 hPa SSE 3.2 km/h 8.4 km/h 91.9% 0.0 mm
03:49 7.3 °C 6.1 °C 1018.7 hPa SSE 4.8 km/h 8.4 km/h 92% 0.0 mm
03:54 7.3 °C 6.1 °C 1018.7 hPa SSE 5 km/h 10 km/h 92% 0.0 mm
03:59 7.4 °C 6.2 °C 1018.5 hPa SSE 5.7 km/h 10 km/h 92% 0.0 mm
04:04 7.4 °C 6.2 °C 1018.5 hPa SSE 5.8 km/h 9.7 km/h 92% 0.0 mm
04:09 7.4 °C 6.2 °C 1018.5 hPa SSE 6.8 km/h 9.7 km/h 92% 0.0 mm
04:14 7.4 °C 6.2 °C 1018.2 hPa SSE 6.9 km/h 9.7 km/h 92% 0.0 mm
04:19 7.4 °C 6.3 °C 1018.2 hPa Sur 4.8 km/h 8 km/h 92.6% 0.0 mm
04:24 7.5 °C 6.4 °C 1018.2 hPa Sur 4.7 km/h 6.4 km/h 93% 0.0 mm
04:29 7.6 °C 6.5 °C 1017.9 hPa Sur 3.4 km/h 5.6 km/h 93% 0.0 mm
04:34 7.6 °C 6.6 °C 1017.9 hPa Sur 3.2 km/h 7.4 km/h 93% 0.0 mm
04:39 7.6 °C 6.6 °C 1017.9 hPa SSE 3.2 km/h 3.7 km/h 93% 0.0 mm
04:44 7.6 °C 6.5 °C 1017.8 hPa SSE 3.2 km/h 3.7 km/h 92.8% 0.0 mm
04:49 7.6 °C 6.4 °C 1017.8 hPa SSE 0.5 km/h 3.2 km/h 92% 0.0 mm
04:54 7.4 °C 6.2 °C 1017.8 hPa Calm   3.9 km/h 92% 0.0 mm
04:59 7.3 °C 6.1 °C 1017.7 hPa Calm   3.9 km/h 92% 0.0 mm
05:04 7.2 °C 6 °C 1017.7 hPa Calm   4.7 km/h 92% 0.0 mm
05:09 7.1 °C 5.9 °C 1017.7 hPa SSE 2 km/h 5.6 km/h 92% 0.0 mm
05:14 7.1 °C 5.9 °C 1017.3 hPa Oeste 2.2 km/h 6.4 km/h 92% 0.0 mm
05:19 7.1 °C 5.9 °C 1017.3 hPa Oeste 3.7 km/h 8 km/h 92% 0.0 mm
05:24 7 °C 5.8 °C 1017.3 hPa Oeste 3.9 km/h 3.7 km/h 92% 0.0 mm
05:29 7 °C 5.8 °C 1017.2 hPa Oeste 2.4 km/h 4.7 km/h 92% 0.0 mm
05:34 6.9 °C 5.7 °C 1017.2 hPa Oeste 2.2 km/h 5 km/h 92% 0.0 mm
05:39 6.9 °C 5.7 °C 1017.2 hPa ESE 2.2 km/h 8.4 km/h 92% 0.0 mm
05:44 6.8 °C 5.6 °C 1017.2 hPa ESE 2.2 km/h 8 km/h 92% 0.0 mm
05:49 6.8 °C 5.6 °C 1017.2 hPa ESE 3.6 km/h 8 km/h 92% 0.0 mm
05:54 6.8 °C 5.6 °C 1017.2 hPa ESE 3.9 km/h 4.8 km/h 92% 0.0 mm
05:59 6.7 °C 5.5 °C 1017.0 hPa ESE 2.4 km/h 4.8 km/h 92% 0.0 mm
06:04 6.7 °C 5.7 °C 1017.0 hPa ESE 2.2 km/h 3.9 km/h 93% 0.0 mm
06:09 6.8 °C 5.7 °C 1017.0 hPa ESE 2.2 km/h 5.8 km/h 93% 0.0 mm
06:14 6.8 °C 5.7 °C 1016.7 hPa SSE 2.2 km/h 7.6 km/h 93% 0.0 mm
06:19 6.9 °C 5.8 °C 1016.7 hPa Sur 3.6 km/h 8.4 km/h 93% 0.0 mm
06:24 7 °C 6 °C 1016.8 hPa Sur 3.9 km/h 8 km/h 93% 0.0 mm
06:29 7.1 °C 6.1 °C 1016.8 hPa Sur 4.6 km/h 8 km/h 93% 0.0 mm
06:34 7.2 °C 6.1 °C 1016.8 hPa Sur 4.7 km/h 6.4 km/h 93% 0.0 mm
06:39 7.2 °C 6.2 °C 1016.8 hPa Sur 3 km/h 7.4 km/h 93% 0.0 mm
06:44 7.2 °C 6.2 °C 1016.6 hPa Sur 2.9 km/h 8 km/h 93% 0.0 mm
06:49 7.3 °C 6.2 °C 1016.6 hPa Sur 3.2 km/h 7.4 km/h 93% 0.0 mm
06:54 7.3 °C 6.2 °C 1016.6 hPa Sur 3.2 km/h 8.7 km/h 93% 0.0 mm
06:59 7.3 °C 6.2 °C 1016.5 hPa SSE 4.8 km/h 10 km/h 93% 0.0 mm
07:04 7.3 °C 6.2 °C 1016.5 hPa Sur 5 km/h 10.3 km/h 93% 0.0 mm
07:09 7.3 °C 6.3 °C 1016.5 hPa SSO 6.2 km/h 11.3 km/h 93% 0.0 mm
07:14 7.4 °C 6.4 °C 1016.5 hPa Sur 6.5 km/h 11.3 km/h 93% 0.0 mm
07:19 7.6 °C 6.5 °C 1016.5 hPa Sur 6.9 km/h 11.9 km/h 93% 0.0 mm
07:24 7.6 °C 6.6 °C 1016.6 hPa Sur 6.9 km/h 11.3 km/h 93% 0.0 mm
07:29 7.6 °C 6.6 °C 1016.6 hPa SO 6 km/h 11.3 km/h 93% 0.0 mm
07:34 7.7 °C 6.7 °C 1016.6 hPa SO 5.8 km/h 10 km/h 93% 0.0 mm
07:39 7.7 °C 6.7 °C 1016.6 hPa OSO 5.1 km/h 5.6 km/h 93% 0.0 mm
07:44 7.7 °C 6.7 °C 1016.3 hPa OSO 5 km/h 7.4 km/h 93% 0.0 mm
07:49 7.8 °C 6.7 °C 1016.3 hPa SSO 3 km/h 8 km/h 93% 0.0 mm
07:54 7.8 °C 6.7 °C 1016.6 hPa SSE 2.9 km/h 10 km/h 92.7% 0.0 mm
07:59 7.8 °C 6.6 °C 1016.6 hPa Sur 5.6 km/h 11.1 km/h 92% 0.0 mm
08:04 7.8 °C 6.6 °C 1016.6 hPa SSE 5.8 km/h 11.3 km/h 92% 0.0 mm
08:09 7.9 °C 6.7 °C 1016.6 hPa SE 6.8 km/h 11.3 km/h 92% 0.0 mm
08:14 7.9 °C 6.7 °C 1016.3 hPa SE 6.9 km/h 11.9 km/h 92% 0.0 mm
08:19 7.8 °C 6.6 °C 1016.3 hPa SSE 7.5 km/h 16.7 km/h 92% 0.0 mm
08:24 7.8 °C 6.5 °C 1016.3 hPa SSE 7.6 km/h 16.1 km/h 92% 0.0 mm
08:29 7.7 °C 6.5 °C 1016.3 hPa Sur 8.3 km/h 14.5 km/h 92% 0.0 mm
08:34 7.7 °C 6.5 °C 1016.3 hPa SSE 8.4 km/h 13 km/h 92% 0.0 mm
08:39 7.8 °C 6.5 °C 1016.3 hPa Sur 8.4 km/h 12.9 km/h 92% 0.0 mm
08:44 7.8 °C 6.6 °C 1016.3 hPa SSO 8.4 km/h 12.9 km/h 92% 0.0 mm
08:49 7.8 °C 6.6 °C 1016.3 hPa SSO 7.7 km/h 13 km/h 92% 0.0 mm
08:54 7.9 °C 6.7 °C 1016.3 hPa Sur 7.6 km/h 12.9 km/h 92% 0.0 mm
08:59 7.9 °C 6.7 °C 1016.2 hPa Sur 7.6 km/h 11.3 km/h 92% 0.0 mm
09:04 8 °C 6.7 °C 1016.2 hPa Sur 7.6 km/h 11.3 km/h 91.7% 0.0 mm
09:09 8.1 °C 6.7 °C 1016.2 hPa SO 6.5 km/h 11.9 km/h 91.3% 0.0 mm
09:14 8.2 °C 6.8 °C 1016.2 hPa OSO 6.5 km/h 11.9 km/h 91% 0.0 mm
09:19 8.2 °C 6.8 °C 1016.2 hPa SO 7.4 km/h 11.3 km/h 91% 0.0 mm
09:24 8.2 °C 6.8 °C 1016.3 hPa OSO 7.6 km/h 13 km/h 91% 0.0 mm
09:29 8.2 °C 6.8 °C 1016.3 hPa SO 7 km/h 13 km/h 91% 0.0 mm
09:34 8.2 °C 6.7 °C 1016.3 hPa SO 6.9 km/h 12.9 km/h 90.3% 0.0 mm
09:39 8.2 °C 6.7 °C 1016.3 hPa SO 5.1 km/h 9.7 km/h 90% 0.0 mm
09:44 8.2 °C 6.7 °C 1016.0 hPa Sur 5 km/h 9.3 km/h 90% 0.0 mm
09:49 8.2 °C 6.7 °C 1016.0 hPa Sur 5.7 km/h 9.7 km/h 90% 0.0 mm
09:54 8.3 °C 6.7 °C 1016.1 hPa SO 5.8 km/h 9.7 km/h 90% 0.0 mm
09:59 8.3 °C 6.8 °C 1016.1 hPa SO 5.1 km/h 9.7 km/h 90% 0.0 mm
10:04 8.3 °C 6.8 °C 1016.1 hPa SO 5 km/h 8 km/h 90% 0.0 mm
10:09 8.4 °C 6.8 °C 1016.1 hPa OSO 4 km/h 8 km/h 90% 0.0 mm
10:14 8.4 °C 6.9 °C 1016.0 hPa SO 3.9 km/h 8.4 km/h 90% 0.0 mm
10:19 8.5 °C 7 °C 1016.0 hPa SO 4.9 km/h 8.7 km/h 90% 0.0 mm
10:24 8.6 °C 7.1 °C 1016.3 hPa SO 5 km/h 11.1 km/h 90% 0.0 mm
10:29 8.7 °C 7 °C 1016.3 hPa OSO 5 km/h 11.3 km/h 89.1% 0.0 mm
10:34 8.7 °C 7 °C 1016.3 hPa SO 5 km/h 15.6 km/h 89% 0.0 mm
10:39 8.8 °C 6.9 °C 1016.4 hPa OSO 6.2 km/h 13.7 km/h 88.1% 0.0 mm
10:44 8.8 °C 6.9 °C 1016.4 hPa SO 6.5 km/h 14.5 km/h 88% 0.0 mm
10:49 8.8 °C 6.9 °C 1016.4 hPa Sur 7.4 km/h 12.9 km/h 88% 0.0 mm
10:54 8.9 °C 7 °C 1016.4 hPa Sur 7.6 km/h 9.7 km/h 88% 0.0 mm
10:59 8.9 °C 7 °C 1016.4 hPa SSO 5.9 km/h 9.7 km/h 88% 0.0 mm
11:04 8.9 °C 7 °C 1016.4 hPa SSO 5.8 km/h 9.7 km/h 87.7% 0.0 mm
11:09 8.9 °C 7 °C 1016.4 hPa SO 6.3 km/h 9.7 km/h 88% 0.0 mm
11:14 9 °C 7.1 °C 1016.4 hPa SO 6.5 km/h 8.4 km/h 88% 0.0 mm
11:19 9 °C 7 °C 1016.4 hPa SSO 4.9 km/h 11.1 km/h 87% 0.0 mm
11:24 9 °C 6.9 °C 1016.7 hPa SSO 4.7 km/h 11.3 km/h 87% 0.0 mm
11:29 9 °C 7 °C 1016.7 hPa SSE 6.8 km/h 11.3 km/h 87% 0.0 mm
11:34 9.1 °C 7.1 °C 1016.7 hPa Sur 6.9 km/h 10 km/h 87% 0.0 mm
11:39 9.1 °C 7.1 °C 1016.7 hPa SSE 5.1 km/h 11.9 km/h 87% 0.0 mm
11:44 9.1 °C 7 °C 1016.5 hPa SE 5 km/h 13 km/h 86.4% 0.0 mm
11:49 9.2 °C 7 °C 1016.5 hPa SSE 7.2 km/h 12.9 km/h 86.2% 0.0 mm
11:54 9.2 °C 7 °C 1016.5 hPa Sur 7.6 km/h 11.3 km/h 86% 0.0 mm
11:59 9.2 °C 7 °C 1016.3 hPa Sur 8.3 km/h 11.3 km/h 86% 0.0 mm
12:04 9.3 °C 7.1 °C 1016.3 hPa Sur 8.4 km/h 11.3 km/h 86% 0.0 mm
12:09 9.4 °C 7.2 °C 1016.4 hPa SSO 7 km/h 9.7 km/h 85.9% 0.0 mm
12:14 9.6 °C 7.2 °C 1016.4 hPa OSO 6.9 km/h 10 km/h 85% 0.0 mm
12:19 9.6 °C 7.1 °C 1016.4 hPa ONO 6.5 km/h 11.1 km/h 84.3% 0.0 mm
12:24 9.7 °C 7 °C 1016.5 hPa Oeste 6.5 km/h 11.9 km/h 83.4% 0.0 mm
12:29 9.7 °C 6.9 °C 1016.5 hPa Oeste 5.9 km/h 11.3 km/h 82.6% 0.0 mm
12:34 9.7 °C 6.7 °C 1016.5 hPa Oeste 5.8 km/h 11.3 km/h 81.7% 0.0 mm
12:39 9.7 °C 6.6 °C 1016.5 hPa OSO 6.4 km/h 13 km/h 81% 0.0 mm
12:44 9.7 °C 6.6 °C 1016.3 hPa Oeste 6.5 km/h 12.9 km/h 81% 0.0 mm
12:49 9.6 °C 6.5 °C 1016.3 hPa OSO 7.4 km/h 13 km/h 81% 0.0 mm
12:54 9.6 °C 6.4 °C 1016.3 hPa ONO 7.6 km/h 12.9 km/h 80.2% 0.0 mm
12:59 9.6 °C 6.3 °C 1016.0 hPa NO 6 km/h 9.7 km/h 80% 0.0 mm
13:04 9.6 °C 6.3 °C 1016.0 hPa NO 5.8 km/h 8.7 km/h 80% 0.0 mm
13:09 9.6 °C 6.3 °C 1016.0 hPa NNO 4 km/h 9.7 km/h 80% 0.0 mm
13:14 9.6 °C 6.3 °C 1015.3 hPa OSO 3.9 km/h 10 km/h 80% 0.0 mm
13:19 9.6 °C 6.3 °C 1015.3 hPa SO 4.8 km/h 9.7 km/h 80% 0.0 mm
13:24 9.6 °C 6.3 °C 1015.3 hPa OSO 5 km/h 8 km/h 80% 0.0 mm
13:29 9.7 °C 6.3 °C 1015.1 hPa Oeste 4.7 km/h 8 km/h 79.5% 0.0 mm
13:34 9.6 °C 6.1 °C 1015.1 hPa OSO 4.7 km/h 8 km/h 79% 0.0 mm
13:39 9.6 °C 6.1 °C 1015.1 hPa OSO 4 km/h 9.3 km/h 79.1% 0.0 mm
13:44 9.7 °C 6.2 °C 1015.0 hPa OSO 3.9 km/h 9.7 km/h 79.2% 0.0 mm
13:49 9.7 °C 6.2 °C 1015.0 hPa ONO 3.9 km/h 8 km/h 79% 0.0 mm
13:54 9.7 °C 6.2 °C 1015.0 hPa ONO 3.9 km/h 8 km/h 79% 0.0 mm
13:59 9.7 °C 6.2 °C 1014.7 hPa ONO 4.6 km/h 10 km/h 79% 0.0 mm
14:04 9.7 °C 6.2 °C 1014.7 hPa Oeste 4.6 km/h 13.7 km/h 79% 0.0 mm
14:09 9.7 °C 6.2 °C 1014.7 hPa Oeste 7.2 km/h 14.5 km/h 79% 0.0 mm
14:14 9.7 °C 6.3 °C 1014.4 hPa SO 7.6 km/h 9.7 km/h 79.7% 0.3 mm
14:19 9.6 °C 6.4 °C 1014.4 hPa NO 5.1 km/h 8 km/h 80.1% 0.3 mm
14:24 9.6 °C 6.5 °C 1014.4 hPa SO 4.7 km/h 9.3 km/h 81.2% 0.5 mm
14:29 9.6 °C 6.7 °C 1014.0 hPa SO 4 km/h 9.7 km/h 82% 0.5 mm
14:34 9.5 °C 6.8 °C 1014.0 hPa SE 3.9 km/h 14.8 km/h 82.9% 0.5 mm
14:39 9.5 °C 6.9 °C 1014.0 hPa SE 4.8 km/h 15.6 km/h 83.9% 0.5 mm
14:44 9.4 °C 6.9 °C 1013.7 hPa SSO 5 km/h 16.1 km/h 84.5% 0.5 mm
14:49 9.4 °C 7 °C 1013.7 hPa SSO 7.4 km/h 12.9 km/h 85.2% 0.5 mm
14:54 9.3 °C 7 °C 1013.7 hPa Oeste 7.6 km/h 11.3 km/h 85.7% 0.5 mm
14:59 9.3 °C 7.1 °C 1013.4 hPa NO 5.1 km/h 9.7 km/h 86% 0.5 mm
15:04 9.4 °C 7.2 °C 1013.4 hPa NO 4.6 km/h 8.4 km/h 86.3% 0.5 mm
15:09 9.4 °C 7.3 °C 1013.4 hPa NO 3.9 km/h 9.3 km/h 87% 0.5 mm
15:14 9.5 °C 7.4 °C 1013.0 hPa NO 3.9 km/h 11.1 km/h 87% 0.5 mm
15:19 9.6 °C 7.6 °C 1013.0 hPa NO 6.2 km/h 14.8 km/h 87% 0.2 mm
15:24 9.6 °C 7.6 °C 1013.0 hPa NO 6.5 km/h 14.5 km/h 87.1% 0.0 mm
15:29 9.6 °C 7.4 °C 1012.9 hPa ONO 7.5 km/h 12.9 km/h 86.4% 0.0 mm
15:34 9.5 °C 7.3 °C 1012.9 hPa ONO 7.6 km/h 13.7 km/h 86% 0.0 mm
15:39 9.5 °C 7.3 °C 1013.0 hPa Oeste 7.6 km/h 14.5 km/h 86.1% 0.0 mm
15:44 9.6 °C 7.4 °C 1013.0 hPa SO 7.6 km/h 9.5 km/h 86% 0.0 mm
15:49 9.6 °C 7.4 °C 1013.0 hPa SSO 5.1 km/h 10 km/h 86% 0.0 mm
15:54 9.6 °C 7.4 °C 1013.3 hPa SSO 4.7 km/h 9.7 km/h 86% 0.0 mm
15:59 9.6 °C 7.4 °C 1013.3 hPa SO 5 km/h 9.7 km/h 86% 0.0 mm
16:04 9.7 °C 7.4 °C 1013.3 hPa Oeste 5 km/h 8.4 km/h 86% 0.0 mm
16:09 9.7 °C 7.5 °C 1013.3 hPa OSO 3.5 km/h 8 km/h 86% 0.0 mm
16:14 9.8 °C 7.6 °C 1013.2 hPa Oeste 3.2 km/h 8 km/h 86% 0.0 mm
16:19 9.9 °C 7.6 °C 1013.2 hPa ONO 4.6 km/h 9.7 km/h 86% 0.0 mm
16:24 9.9 °C 7.6 °C 1013.2 hPa ONO 4.7 km/h 9.7 km/h 85.7% 0.0 mm
16:29 9.9 °C 7.5 °C 1013.0 hPa Oeste 4.9 km/h 9.7 km/h 85% 0.0 mm
16:34 9.9 °C 7.5 °C 1013.0 hPa SSO 5 km/h 8 km/h 85% 0.0 mm
16:39 9.9 °C 7.5 °C 1013.0 hPa ENE 3.3 km/h 8.4 km/h 85% 0.0 mm
16:44 9.9 °C 7.5 °C 1012.2 hPa NE 3.2 km/h 10 km/h 85% 0.0 mm
16:49 9.9 °C 7.5 °C 1012.2 hPa NNE 5.4 km/h 10 km/h 85% 0.0 mm
16:54 9.9 °C 7.5 °C 1012.2 hPa NNO 5.8 km/h 9.7 km/h 85% 0.0 mm
16:59 9.9 °C 7.5 °C 1012.0 hPa NNO 6.3 km/h 11.1 km/h 85.2% 0.0 mm
17:04 9.9 °C 7.6 °C 1012.0 hPa NO 6.5 km/h 11.3 km/h 86% 0.0 mm
17:09 9.8 °C 7.6 °C 1012.3 hPa NO 6.9 km/h 11.9 km/h 86% 0.0 mm
17:14 9.8 °C 7.6 °C 1012.3 hPa NNO 6.9 km/h 11.9 km/h 86% 0.0 mm
17:19 9.9 °C 7.7 °C 1012.3 hPa NNO 5.9 km/h 11.3 km/h 86.4% 0.0 mm
17:24 9.9 °C 7.8 °C 1012.3 hPa North 5.8 km/h 11.3 km/h 87% 0.0 mm
17:29 9.9 °C 7.8 °C 1012.2 hPa NNO 5.8 km/h 11.1 km/h 87% 0.0 mm
17:34 9.8 °C 7.8 °C 1012.2 hPa North 5.8 km/h 11.3 km/h 87% 0.0 mm
17:39 9.8 °C 7.8 °C 1012.4 hPa NNE 5.1 km/h 7.6 km/h 87.2% 0.0 mm
17:44 9.8 °C 7.8 °C 1012.4 hPa NNE 5 km/h 8 km/h 87.3% 0.0 mm
17:49 9.8 °C 7.7 °C 1012.4 hPa NNE 3.9 km/h 8 km/h 87.1% 0.0 mm
17:54 9.8 °C 7.7 °C 1012.8 hPa NNE 3.9 km/h 5.6 km/h 87% 0.0 mm
17:59 9.8 °C 7.7 °C 1012.8 hPa NNE 3 km/h 5 km/h 87% 0.0 mm
18:04 9.8 °C 7.7 °C 1012.8 hPa ONO 2.9 km/h 5.6 km/h 87% 0.0 mm
18:09 9.8 °C 7.7 °C 1012.8 hPa ONO 2.9 km/h 4.8 km/h 87% 0.0 mm
18:14 9.8 °C 7.7 °C 1012.7 hPa ONO 2.9 km/h 4.8 km/h 87% 0.0 mm
18:19 9.8 °C 7.7 °C 1012.7 hPa Oeste 2.4 km/h 10.3 km/h 87% 0.0 mm
18:24 9.8 °C 7.7 °C 1012.7 hPa ESE 2.2 km/h 11.3 km/h 87% 0.0 mm
18:29 9.8 °C 7.7 °C 1012.6 hPa ESE 4.6 km/h 11.3 km/h 87% 0.0 mm
18:34 9.8 °C 7.7 °C 1012.6 hPa ESE 5 km/h 3.2 km/h 87% 0.0 mm
18:39 9.8 °C 7.9 °C 1012.6 hPa ESE 0.4 km/h 7.4 km/h 87.9% 0.0 mm
18:44 9.8 °C 7.9 °C 1012.3 hPa Calm   8 km/h 88% 0.0 mm
18:49 9.8 °C 7.9 °C 1012.3 hPa ESE 3.6 km/h 8 km/h 88% 0.0 mm
18:54 9.7 °C 7.8 °C 1012.6 hPa NE 3.9 km/h 5.6 km/h 88% 0.0 mm
18:59 9.7 °C 7.8 °C 1012.6 hPa NE 2.4 km/h 4.8 km/h 88% 0.0 mm
19:04 9.7 °C 7.8 °C 1012.6 hPa NE 2.2 km/h 4.7 km/h 88% 0.0 mm
19:09 9.7 °C 7.8 °C 1012.6 hPa NE 2.8 km/h 4.8 km/h 88% 0.0 mm
19:14 9.6 °C 7.7 °C 1012.4 hPa NE 2.9 km/h 5 km/h 88% 0.0 mm
19:19 9.6 °C 7.7 °C 1012.4 hPa NE 2.4 km/h 5.6 km/h 88.1% 0.0 mm
19:24 9.7 °C 8 °C 1012.6 hPa NE 2.2 km/h 4.8 km/h 89% 0.0 mm
19:29 9.7 °C 8 °C 1012.6 hPa NNE 2.8 km/h 5.8 km/h 89% 0.0 mm
19:34 9.7 °C 8 °C 1012.6 hPa NO 2.9 km/h 7.4 km/h 89% 0.0 mm
19:39 9.7 °C 8 °C 1012.6 hPa SSO 2.9 km/h 8 km/h 89% 0.0 mm
19:44 9.7 °C 8 °C 1012.6 hPa SSE 2.9 km/h 6.9 km/h 89% 0.0 mm
19:49 9.7 °C 8 °C 1012.6 hPa ENE 2.9 km/h 8 km/h 89% 0.0 mm
19:54 9.6 °C 7.8 °C 1012.6 hPa NE 2.9 km/h 8 km/h 88.2% 0.0 mm
19:59 9.6 °C 7.8 °C 1012.6 hPa NE 4.5 km/h 8 km/h 88.6% 0.0 mm
20:04 9.4 °C 7.7 °C 1012.6 hPa NE 4.7 km/h 6.4 km/h 89% 0.0 mm
20:09 9.4 °C 7.7 °C 1012.6 hPa NE 3 km/h 4.7 km/h 89% 0.0 mm
20:14 9.4 °C 7.7 °C 1012.5 hPa NE 2.9 km/h 4.8 km/h 89% 0.0 mm
20:19 9.4 °C 7.7 °C 1012.5 hPa NE 0.1 km/h 6.9 km/h 89% 0.0 mm
20:24 9.4 °C 7.7 °C 1012.7 hPa Calm   8.7 km/h 89% 0.0 mm
20:29 9.5 °C 7.8 °C 1012.7 hPa Sur 4.4 km/h 9.7 km/h 89% 0.0 mm
20:34 9.5 °C 7.8 °C 1012.7 hPa Sur 5 km/h 8.4 km/h 89% 0.0 mm
20:39 9.5 °C 7.8 °C 1012.7 hPa SSO 4.7 km/h 8 km/h 89% 0.0 mm
20:44 9.5 °C 7.8 °C 1012.6 hPa SO 4.7 km/h 8 km/h 89% 0.0 mm
20:49 9.6 °C 7.8 °C 1012.6 hPa SO 3.4 km/h 4.8 km/h 89% 0.0 mm
20:54 9.5 °C 7.8 °C 1012.6 hPa SO 3.2 km/h 5.8 km/h 89% 0.0 mm
20:59 9.6 °C 7.9 °C 1012.5 hPa SSE 2.9 km/h 9.5 km/h 89% 0.0 mm
21:04 9.6 °C 7.8 °C 1012.5 hPa ESE 2.9 km/h 10 km/h 88.9% 0.0 mm
21:09 9.4 °C 7.7 °C 1012.5 hPa SE 6 km/h 9.7 km/h 89% 0.0 mm
21:14 9.4 °C 7.7 °C 1012.3 hPa SSE 6.5 km/h 9.7 km/h 89% 0.0 mm
21:19 9.3 °C 7.6 °C 1012.3 hPa SSE 6.5 km/h 11.1 km/h 89% 0.0 mm
21:24 9.3 °C 7.6 °C 1012.5 hPa Sur 6.5 km/h 11.3 km/h 89.2% 0.0 mm
21:29 9.3 °C 7.7 °C 1012.5 hPa Sur 4.2 km/h 8.4 km/h 90% 0.0 mm
21:34 9.3 °C 7.7 °C 1012.5 hPa ONO 3.9 km/h 10.3 km/h 90% 0.0 mm
21:39 9.3 °C 7.7 °C 1012.5 hPa OSO 3.9 km/h 11.3 km/h 90% 0.0 mm
21:44 9.3 °C 7.7 °C 1012.4 hPa ONO 3.9 km/h 11.3 km/h 90% 0.0 mm
21:49 9.3 °C 7.7 °C 1012.4 hPa OSO 4.8 km/h 10 km/h 90% 0.0 mm
21:54 9.3 °C 7.7 °C 1012.4 hPa Sur 5 km/h 9.7 km/h 90% 0.0 mm
21:59 9.3 °C 7.7 °C 1012.4 hPa Sur 3.9 km/h 8 km/h 90% 0.0 mm
22:04 9.3 °C 7.7 °C 1012.4 hPa North 3.9 km/h 7.4 km/h 90% 0.0 mm
22:09 9.2 °C 7.7 °C 1012.4 hPa NNE 3 km/h 8 km/h 90% 0.0 mm
22:14 9.1 °C 7.6 °C 1012.2 hPa Oeste 2.9 km/h 7.6 km/h 90% 0.0 mm
22:19 9.1 °C 7.5 °C 1012.2 hPa Oeste 3.8 km/h 8 km/h 90% 0.0 mm
22:24 8.9 °C 7.4 °C 1012.2 hPa Oeste 3.9 km/h 5.6 km/h 90% 0.0 mm
22:29 8.9 °C 7.4 °C 1011.9 hPa ONO 3.3 km/h 7.6 km/h 90.6% 0.0 mm
22:34 8.8 °C 7.4 °C 1011.9 hPa Oeste 3.2 km/h 8.4 km/h 91% 0.0 mm
22:39 8.8 °C 7.4 °C 1012.1 hPa SO 4.5 km/h 11.1 km/h 91% 0.0 mm
22:44 8.8 °C 7.4 °C 1012.1 hPa OSO 4.7 km/h 11.3 km/h 91% 0.0 mm
22:49 8.9 °C 7.5 °C 1012.1 hPa OSO 4.9 km/h 9.3 km/h 91% 0.0 mm
22:54 8.9 °C 7.5 °C 1012.2 hPa OSO 5 km/h 9.7 km/h 91% 0.0 mm
22:59 8.8 °C 7.4 °C 1012.2 hPa North 4 km/h 9.5 km/h 91% 0.0 mm
23:04 8.8 °C 7.4 °C 1012.2 hPa ESE 3.9 km/h 9.7 km/h 91% 0.0 mm
23:09 8.7 °C 7.3 °C 1012.4 hPa SE 4.6 km/h 9.7 km/h 91% 0.0 mm
23:14 8.7 °C 7.3 °C 1012.4 hPa ENE 4.7 km/h 10 km/h 91% 0.0 mm
23:19 8.6 °C 7.2 °C 1012.4 hPa ENE 4.7 km/h 9.7 km/h 91% 0.0 mm
23:24 8.4 °C 7 °C 1012.4 hPa ENE 4.7 km/h 4.8 km/h 91% 0.0 mm
23:29 8.4 °C 7.2 °C 1012.4 hPa ENE 2.6 km/h 4.8 km/h 92% 0.0 mm
23:34 8.4 °C 7.2 °C 1012.4 hPa ENE 2.2 km/h 7.4 km/h 92% 0.0 mm
23:39 8.4 °C 7.2 °C 1012.5 hPa ENE 2.8 km/h 5 km/h 92% 0.0 mm
23:44 8.4 °C 7.2 °C 1012.5 hPa Este 2.9 km/h 6.9 km/h 92% 0.0 mm
23:49 8.4 °C 7.2 °C 1012.5 hPa SSE 3.2 km/h 8 km/h 92% 0.0 mm
23:54 8.4 °C 7.2 °C 1012.5 hPa SSE 3.2 km/h 8 km/h 92% 0.0 mm
23:59 8.4 °C 7.2 °C 1012.5 hPa Sur 3.8 km/h 5.8 km/h 92% 0.0 mm
Murcia-Puente Tocinos, Espa?a
Compliments of Weather Underground - 3 mb

La estación de MeteoMurcia.com, publica sus datos en los siguientes proyectos:

Weather Underground PWS IMURCIAP2 Meteoclimatic www.awekas.at

W3Counter
Web Analytics